Latchford, Canada
Current Conditions -  °F | °C
As of 12:00 AM on Sunday 23 Nov 2014 (Local Time) from CYXR Reporting Station
Haze Haze  
Wind Chill: 27°   Ceiling: 4400
Heat Index: 34°   Visibility: 6mi
Dew Point: 32°   Wind: 8mph
Humidity: 93%   Direction: 200°SSW
Pressure: 29.78"   Gusts: NA
Location:  47.33°N, 79.8°W
Report Text: CYXR 230500Z AUTO 20007KT 6SM BR SCT025 BKN044 OVC050 01/00 A2978 RMK SLP096
Loading
Personal Weather Stations






























Interactive Weather Map New forecast layout! Learn more

10-Day Weather Forecast

Advertisements
Track Severe Weather on mobile